Dillsboro, Indiana
Current Conditions -  °F | °C
As of 3:52 PM on Monday 24 Nov 2014 (Local Time) from KCVG Reporting Station
Overcast Overcast  
Wind Chill: 37°   Ceiling: 3400
Heat Index: 45°   Visibility: 10mi
Dew Point: 32°   Wind: 20mph
Humidity: 60%   Direction: 240°WSW
Pressure: 29.72"   Gusts: 28mph
Location:  39.02°N, 85.06°W
Report Text: KCVG 242052Z 24017G24KT 10SM OVC034 07/00 A2972 RMK AO2 PK WND 26031/2016 SLP061 T00720000 51042
Loading
Personal Weather Stations






























Interactive Weather Map New forecast layout! Learn more

10-Day Weather Forecast

Advertisements
Track Severe Weather on mobile